Time;durP1;ratioP1;P1;durP2;ratioP2;P2;SDS_P1;SDS_P2;PMS_P1;PMS_P2;Temp;Humidity;BMP_temperature;BMP_pressure;BME280_temperature;BME280_humidity;BME280_pressure;Samples;Min_cycle;Max_cycle;Signal;HPM_P1;HPM_P2
2023/04/29 04:02:01;;;;;;;1.90;1.00;;;14.10;83.90;;;;;;5329046;23;20483;-73
2023/04/29 04:04:28;;;;;;;1.90;1.20;;;14.10;84.30;;;;;;4977439;28;20445;-73
2023/04/29 04:06:54;;;;;;;2.50;1.10;;;14.20;84.20;;;;;;4977348;28;20442;-73
2023/04/29 04:09:21;;;;;;;2.53;1.10;;;14.20;84.00;;;;;;4977320;28;20499;-73
2023/04/29 04:11:47;;;;;;;1.90;1.03;;;14.20;83.80;;;;;;4977289;28;20537;-73
2023/04/29 04:14:14;;;;;;;1.90;1.30;;;14.20;83.50;;;;;;4977764;28;20450;-73
2023/04/29 04:16:41;;;;;;;1.70;0.97;;;14.20;83.20;;;;;;4976761;28;20906;-73
2023/04/29 04:19:09;;;;;;;1.90;1.17;;;14.20;83.10;;;;;;4977014;28;20829;-73
2023/04/29 04:21:36;;;;;;;2.00;1.13;;;14.20;83.30;;;;;;4976694;28;20992;-74
2023/04/29 04:24:03;;;;;;;2.07;1.20;;;14.20;82.90;;;;;;4977865;28;20446;-73
2023/04/29 04:26:30;;;;;;;1.97;1.10;;;14.20;82.80;;;;;;4976717;28;20944;-73
2023/04/29 04:28:56;;;;;;;1.73;1.07;;;14.20;82.90;;;;;;4976677;28;20865;-73
2023/04/29 04:31:23;;;;;;;1.90;1.00;;;14.30;82.70;;;;;;4976539;28;21053;-73
2023/04/29 04:33:50;;;;;;;3.30;1.30;;;14.30;82.40;;;;;;4976902;28;20453;-73
2023/04/29 04:36:18;;;;;;;1.87;0.80;;;14.30;82.10;;;;;;4976710;28;20446;-74
2023/04/29 04:38:44;;;;;;;1.80;1.00;;;14.30;82.20;;;;;;4975396;28;20942;-73
2023/04/29 04:41:11;;;;;;;1.73;0.93;;;14.30;82.20;;;;;;4976646;28;20470;-73
2023/04/29 04:43:38;;;;;;;1.77;1.00;;;14.30;82.10;;;;;;4976695;28;20458;-73
2023/04/29 04:46:10;;;;;;;2.00;1.10;;;14.40;82.20;;;;;;4976532;28;20990;-73
2023/04/29 04:48:37;;;;;;;2.10;1.20;;;14.40;82.40;;;;;;4976640;28;20435;-73
2023/04/29 04:51:08;;;;;;;1.80;1.20;;;14.40;82.40;;;;;;4976488;28;20466;-73
2023/04/29 04:53:36;;;;;;;1.73;0.97;;;14.50;82.70;;;;;;4976200;28;20788;-73
2023/04/29 04:56:02;;;;;;;2.00;1.10;;;14.60;82.70;;;;;;4976448;28;20455;-73
2023/04/29 04:58:30;;;;;;;1.90;1.30;;;14.70;82.60;;;;;;4976355;28;20493;-73
2023/04/29 05:00:57;;;;;;;1.90;1.20;;;14.80;82.40;;;;;;4976083;28;20482;-73
2023/04/29 05:03:24;;;;;;;1.80;1.10;;;14.90;82.40;;;;;;4976375;28;20815;-73
2023/04/29 05:05:53;;;;;;;1.70;1.00;;;15.10;82.30;;;;;;4976237;28;20800;-73
2023/04/29 05:08:20;;;;;;;1.77;1.00;;;15.20;82.20;;;;;;4975933;28;20446;-73
2023/04/29 05:10:48;;;;;;;1.80;1.17;;;15.30;82.30;;;;;;4976127;28;20469;-73
2023/04/29 05:13:15;;;;;;;2.20;1.33;;;15.40;82.40;;;;;;4976149;28;20477;-73
2023/04/29 05:15:43;;;;;;;1.70;1.00;;;15.60;82.20;;;;;;4976101;28;20871;-73
2023/04/29 05:18:10;;;;;;;2.10;1.20;;;15.70;82.00;;;;;;4976025;28;20484;-73
2023/04/29 05:20:36;;;;;;;1.70;1.00;;;15.80;81.80;;;;;;4975906;28;20520;-73
2023/04/29 05:23:03;;;;;;;1.67;0.97;;;16.00;81.80;;;;;;4975909;28;20450;-73
2023/04/29 05:25:30;;;;;;;1.80;1.10;;;16.10;81.50;;;;;;4975569;28;20965;-72
2023/04/29 05:27:58;;;;;;;1.90;1.20;;;16.20;81.00;;;;;;4975852;28;20459;-72
2023/04/29 05:30:25;;;;;;;1.53;0.83;;;16.30;81.20;;;;;;4975760;28;20454;-73
2023/04/29 05:32:52;;;;;;;1.53;0.87;;;16.50;80.80;;;;;;4975779;28;20450;-73
2023/04/29 05:35:19;;;;;;;2.20;1.20;;;16.60;80.40;;;;;;4975750;28;20450;-72
2023/04/29 05:37:45;;;;;;;1.90;1.20;;;16.70;79.70;;;;;;4975263;28;21053;-72
2023/04/29 05:40:12;;;;;;;1.90;1.13;;;16.80;79.10;;;;;;4975341;28;20944;-71
2023/04/29 05:42:39;;;;;;;1.97;1.20;;;16.70;78.70;;;;;;4975512;28;20529;-72
2023/04/29 05:45:09;;;;;;;1.80;1.10;;;16.70;78.40;;;;;;4975547;28;20489;-72
2023/04/29 05:47:36;;;;;;;1.87;1.37;;;16.60;78.70;;;;;;4975425;28;20474;-72
2023/04/29 05:50:02;;;;;;;1.90;1.20;;;16.50;79.10;;;;;;4975137;28;20480;-71
2023/04/29 05:52:29;;;;;;;1.80;1.13;;;16.50;79.50;;;;;;4975307;28;20521;-73
2023/04/29 05:54:56;;;;;;;2.60;1.33;;;16.60;79.90;;;;;;4975430;28;20449;-73
2023/04/29 05:57:23;;;;;;;1.67;1.00;;;16.80;80.00;;;;;;4975237;28;20508;-72
2023/04/29 05:59:50;;;;;;;1.87;1.27;;;16.80;79.90;;;;;;4975278;28;20521;-73
2023/04/29 06:02:18;;;;;;;1.90;1.20;;;16.80;79.50;;;;;;4974865;28;20541;-73
2023/04/29 06:04:46;;;;;;;1.90;1.30;;;17.00;79.10;;;;;;4975205;28;20513;-72
2023/04/29 06:07:13;;;;;;;2.10;1.20;;;17.00;78.90;;;;;;4975135;28;20458;-72
2023/04/29 06:09:41;;;;;;;2.23;1.47;;;17.00;78.70;;;;;;4975167;28;20454;-72
2023/04/29 06:12:08;;;;;;;2.20;1.20;;;17.10;78.50;;;;;;4975239;28;20474;-73
2023/04/29 06:14:35;;;;;;;1.90;1.23;;;17.40;78.60;;;;;;4975149;28;20450;-74
2023/04/29 06:17:02;;;;;;;2.03;1.20;;;17.60;77.10;;;;;;4975033;28;20489;-74
2023/04/29 06:19:31;;;;;;;2.70;1.00;;;17.70;76.20;;;;;;4974675;28;20872;-74
2023/04/29 06:21:58;;;;;;;2.20;1.30;;;18.00;76.10;;;;;;4974894;28;20478;-75
2023/04/29 06:24:25;;;;;;;1.73;1.13;;;18.20;74.80;;;;;;4974953;28;20457;-73
2023/04/29 06:26:52;;;;;;;2.00;1.10;;;18.20;75.40;;;;;;4974906;28;20458;-74
2023/04/29 06:29:18;;;;;;;2.20;1.03;;;18.30;74.10;;;;;;4974605;28;20438;-73
2023/04/29 06:31:45;;;;;;;2.20;1.33;;;17.90;74.50;;;;;;4974721;28;20466;-72
2023/04/29 06:34:12;;;;;;;1.90;1.23;;;17.70;75.50;;;;;;4975096;28;20446;-73
2023/04/29 06:36:40;;;;;;;1.80;1.00;;;17.80;75.50;;;;;;4974781;28;20458;-73
2023/04/29 06:39:07;;;;;;;1.73;1.10;;;17.80;75.80;;;;;;4974811;28;20459;-73
2023/04/29 06:41:35;;;;;;;2.00;1.20;;;17.90;76.30;;;;;;4974615;28;20557;-73
2023/04/29 06:44:02;;;;;;;2.17;1.50;;;17.90;75.90;;;;;;4974623;28;20455;-72
2023/04/29 06:46:29;;;;;;;2.00;1.60;;;17.60;76.20;;;;;;4974263;28;21026;-73
2023/04/29 06:48:55;;;;;;;2.27;1.40;;;17.60;75.60;;;;;;4974514;28;20452;-70
2023/04/29 06:51:23;;;;;;;1.87;1.10;;;17.30;75.80;;;;;;4974164;28;20474;-74
2023/04/29 06:53:51;;;;;;;2.63;1.67;;;17.10;76.90;;;;;;4974510;28;20543;-73
2023/04/29 06:56:18;;;;;;;2.37;1.50;;;17.00;77.60;;;;;;4974538;28;20505;-73
2023/04/29 06:58:45;;;;;;;1.90;1.30;;;17.10;77.20;;;;;;4974448;28;20485;-73
2023/04/29 07:01:12;;;;;;;1.90;1.37;;;17.30;76.20;;;;;;4974293;28;20489;-73
2023/04/29 07:03:38;;;;;;;1.87;1.20;;;17.40;76.10;;;;;;4977632;28;20450;-73
2023/04/29 07:06:05;;;;;;;1.70;1.20;;;17.50;75.20;;;;;;4978450;28;20497;-73
2023/04/29 07:08:32;;;;;;;1.90;1.20;;;17.40;75.10;;;;;;4978349;28;20974;-73
2023/04/29 07:11:00;;;;;;;1.97;1.10;;;17.40;74.60;;;;;;4978310;28;20473;-72
2023/04/29 07:13:26;;;;;;;3.70;1.30;;;17.20;74.60;;;;;;4978381;28;20446;-71
2023/04/29 07:15:53;;;;;;;1.70;1.13;;;17.20;74.80;;;;;;4978059;28;20508;-72
2023/04/29 07:18:20;;;;;;;2.13;1.10;;;17.30;75.20;;;;;;4978188;28;20878;-71
2023/04/29 07:20:46;;;;;;;1.80;1.00;;;17.30;74.60;;;;;;4977903;28;20879;-72
2023/04/29 07:23:13;;;;;;;2.07;1.07;;;17.40;75.60;;;;;;4978165;28;20449;-71
2023/04/29 07:25:40;;;;;;;1.90;1.20;;;17.70;74.30;;;;;;4978139;28;20457;-72
2023/04/29 07:28:08;;;;;;;1.80;1.20;;;17.90;73.40;;;;;;4978127;28;20446;-71
2023/04/29 07:30:36;;;;;;;1.70;1.10;;;18.00;72.40;;;;;;4978011;28;20528;-71
2023/04/29 07:33:03;;;;;;;2.47;1.23;;;18.30;69.70;;;;;;4977985;28;20473;-70
2023/04/29 07:35:30;;;;;;;1.50;0.80;;;18.40;69.80;;;;;;4977947;28;20533;-69
2023/04/29 07:37:57;;;;;;;2.20;1.00;;;18.60;69.70;;;;;;4977768;28;20554;-70
2023/04/29 07:40:23;;;;;;;1.80;1.10;;;18.70;68.70;;;;;;4978039;28;20450;-71
2023/04/29 07:42:50;;;;;;;1.80;1.00;;;19.00;66.90;;;;;;4977801;28;20864;-69
2023/04/29 07:45:18;;;;;;;1.80;1.13;;;19.20;67.70;;;;;;4978085;28;20453;-70
2023/04/29 07:47:45;;;;;;;1.60;1.00;;;19.30;67.00;;;;;;4977458;28;20935;-69
2023/04/29 07:50:12;;;;;;;1.60;0.90;;;19.20;67.00;;;;;;4977740;28;20541;-69
2023/04/29 07:52:39;;;;;;;1.60;0.90;;;19.20;67.50;;;;;;4977559;28;20485;-69
2023/04/29 07:55:06;;;;;;;1.90;0.90;;;19.20;67.50;;;;;;4977569;28;20488;-71
2023/04/29 07:57:33;;;;;;;1.60;0.80;;;18.90;67.80;;;;;;4977157;28;20998;-70
2023/04/29 08:00:00;;;;;;;1.70;0.83;;;18.60;68.80;;;;;;4977504;28;20521;-70
2023/04/29 08:02:28;;;;;;;1.63;1.00;;;18.40;70.10;;;;;;4977179;28;20523;-70
2023/04/29 08:04:54;;;;;;;1.73;0.90;;;18.30;70.20;;;;;;4977378;28;20469;-70
2023/04/29 08:07:21;;;;;;;1.50;0.80;;;18.10;70.60;;;;;;4977328;28;20457;-70
2023/04/29 08:09:47;;;;;;;4.63;1.10;;;17.80;71.50;;;;;;4977276;28;20454;-71
2023/04/29 08:12:14;;;;;;;2.53;1.17;;;17.90;71.60;;;;;;4977270;28;20528;-70
2023/04/29 08:14:41;;;;;;;1.70;1.10;;;17.80;72.20;;;;;;4977063;28;20454;-71
2023/04/29 08:17:07;;;;;;;1.60;0.80;;;17.80;71.30;;;;;;4977094;28;20454;-70
2023/04/29 08:19:35;;;;;;;1.73;0.90;;;17.70;71.30;;;;;;4977064;28;20846;-69
2023/04/29 08:22:03;;;;;;;3.43;1.10;;;17.70;71.80;;;;;;4976656;28;21039;-69
2023/04/29 08:24:30;;;;;;;1.60;0.83;;;17.80;71.20;;;;;;4977273;28;20529;-69
2023/04/29 08:26:58;;;;;;;1.53;0.80;;;17.90;70.90;;;;;;4977027;28;20450;-70
2023/04/29 08:29:25;;;;;;;2.07;0.90;;;18.00;71.10;;;;;;4976951;28;20458;-68
2023/04/29 08:31:51;;;;;;;1.50;0.73;;;18.10;69.60;;;;;;4976789;28;20556;-70
2023/04/29 08:34:18;;;;;;;1.90;0.80;;;18.20;68.40;;;;;;4976896;28;20867;-71
2023/04/29 08:36:46;;;;;;;1.50;0.80;;;18.20;68.80;;;;;;4976881;28;20504;-71
2023/04/29 08:39:13;;;;;;;1.60;0.70;;;18.20;68.50;;;;;;4976769;28;20560;-71
2023/04/29 08:41:39;;;;;;;2.77;0.90;;;18.20;68.40;;;;;;4976942;28;20474;-70
2023/04/29 08:44:06;;;;;;;1.50;0.80;;;18.30;69.20;;;;;;4976551;28;20880;-70
2023/04/29 08:46:33;;;;;;;1.50;0.70;;;18.40;68.90;;;;;;4976848;28;20450;-70
2023/04/29 08:49:03;;;;;;;2.03;0.90;;;18.30;68.80;;;;;;4976677;28;20505;-70
2023/04/29 08:51:32;;;;;;;2.07;0.80;;;18.30;68.80;;;;;;4976620;28;20505;-71
2023/04/29 08:54:00;;;;;;;1.50;0.80;;;18.30;69.50;;;;;;4976282;28;20940;-71
2023/04/29 08:56:27;;;;;;;1.43;0.70;;;18.40;68.70;;;;;;4976579;28;20450;-70
2023/04/29 08:58:57;;;;;;;1.90;0.90;;;18.50;68.40;;;;;;4976328;28;20508;-70
2023/04/29 09:01:27;;;;;;;1.90;0.83;;;18.40;68.50;;;;;;4976563;28;20485;-70
2023/04/29 09:04:12;;;;;;;1.53;0.80;;;18.60;68.50;;;;;;4976466;28;20446;-71
2023/04/29 09:06:38;;;;;;;1.50;0.90;;;18.50;67.70;;;;;;4976252;28;20439;-71
2023/04/29 09:09:06;;;;;;;1.80;0.80;;;18.60;68.70;;;;;;4976201;28;20501;-71
2023/04/29 09:11:34;;;;;;;1.70;1.00;;;18.80;67.80;;;;;;4976164;28;20474;-71
2023/04/29 09:14:03;;;;;;;1.60;0.90;;;18.70;69.20;;;;;;4976066;28;20837;-71
2023/04/29 09:16:30;;;;;;;1.50;0.70;;;18.90;69.20;;;;;;4975767;28;20500;-71
2023/04/29 09:18:57;;;;;;;1.50;0.90;;;19.00;67.90;;;;;;4976030;28;20486;-72
2023/04/29 09:21:26;;;;;;;1.70;0.90;;;19.00;67.70;;;;;;4975626;28;21011;-70
2023/04/29 09:23:54;;;;;;;1.60;0.90;;;18.90;68.00;;;;;;4976185;28;20452;-70
2023/04/29 09:26:23;;;;;;;1.97;1.20;;;19.00;68.20;;;;;;4975278;28;20450;-69
2023/04/29 09:29:07;;;;;;;1.70;0.90;;;19.20;68.50;;;;;;4975803;28;20442;-70
2023/04/29 09:31:34;;;;;;;1.83;0.80;;;19.30;68.10;;;;;;4975738;28;20561;-70
2023/04/29 09:34:01;;;;;;;2.63;1.23;;;19.30;69.40;;;;;;4975694;28;20828;-70
2023/04/29 09:36:39;;;;;;;1.87;0.80;;;19.40;68.50;;;;;;4975392;28;20943;-71
2023/04/29 09:39:10;;;;;;;3.10;1.00;;;19.40;68.30;;;;;;4975712;28;20572;-70
2023/04/29 09:41:39;;;;;;;1.67;0.90;;;19.40;68.30;;;;;;4975664;28;20484;-71
2023/04/29 09:44:06;;;;;;;1.80;0.90;;;19.40;70.00;;;;;;4975407;28;20850;-71
2023/04/29 09:46:33;;;;;;;1.60;1.00;;;19.40;69.10;;;;;;4975310;28;20450;-71
2023/04/29 09:49:00;;;;;;;2.17;1.30;;;19.40;69.70;;;;;;4975268;28;20447;-70
2023/04/29 09:51:27;;;;;;;2.10;1.00;;;19.50;68.40;;;;;;4975028;28;20991;-70
2023/04/29 09:53:54;;;;;;;1.70;1.07;;;19.30;68.10;;;;;;4975327;28;20891;-73
2023/04/29 09:56:21;;;;;;;1.50;0.70;;;19.30;68.70;;;;;;4975342;28;20454;-73
2023/04/29 09:58:49;;;;;;;2.00;0.87;;;19.50;69.50;;;;;;4975216;28;20834;-74
2023/04/29 10:01:19;;;;;;;1.73;1.00;;;19.70;68.90;;;;;;4975108;28;20560;-74
2023/04/29 10:03:48;;;;;;;1.90;0.80;;;19.80;67.80;;;;;;4975280;28;20441;-75
2023/04/29 10:06:17;;;;;;;1.83;1.20;;;19.70;68.70;;;;;;4975569;28;20450;-75
2023/04/29 10:08:46;;;;;;;1.83;1.00;;;19.80;67.60;;;;;;4976243;28;20450;-74
2023/04/29 10:11:14;;;;;;;1.80;0.90;;;20.00;67.30;;;;;;4976565;28;20866;-74
2023/04/29 10:13:43;;;;;;;1.63;1.00;;;20.00;65.70;;;;;;4999604;23;20545;-74
2023/04/29 10:16:23;;;;;;;1.97;1.00;;;19.90;66.10;;;;;;4974964;28;20442;-74
2023/04/29 10:18:54;;;;;;;1.90;1.27;;;19.90;67.80;;;;;;4975408;28;20474;-73
2023/04/29 10:21:24;;;;;;;2.17;0.90;;;19.90;65.90;;;;;;4974934;28;20430;-74
2023/04/29 10:23:52;;;;;;;2.10;1.00;;;19.90;65.90;;;;;;4974811;28;20484;-75
2023/04/29 10:26:22;;;;;;;2.00;1.00;;;19.90;67.20;;;;;;4974826;28;20480;-74
2023/04/29 10:28:51;;;;;;;2.00;1.13;;;20.10;66.90;;;;;;4974864;28;20454;-73
2023/04/29 10:31:21;;;;;;;1.83;1.00;;;20.30;66.40;;;;;;4974590;28;20557;-74
2023/04/29 10:33:49;;;;;;;1.70;0.80;;;20.30;66.20;;;;;;4974936;28;20560;-74
2023/04/29 10:36:16;;;;;;;1.70;1.00;;;20.30;64.90;;;;;;4974253;28;20460;-74
2023/04/29 10:38:47;;;;;;;1.93;1.00;;;20.20;65.10;;;;;;4974172;28;20492;-74
2023/04/29 10:41:20;;;;;;;1.83;1.00;;;20.40;66.80;;;;;;4974638;28;20443;-73
2023/04/29 10:43:47;;;;;;;2.23;1.17;;;20.40;64.20;;;;;;4974577;28;20475;-74
2023/04/29 10:46:19;;;;;;;2.20;0.90;;;20.30;63.70;;;;;;4974225;28;20509;-74
2023/04/29 10:48:46;;;;;;;1.90;1.00;;;20.20;64.00;;;;;;4974223;28;20446;-74
2023/04/29 10:51:13;;;;;;;2.53;0.97;;;20.10;63.20;;;;;;4974458;28;20496;-75
2023/04/29 10:54:02;;;;;;;2.10;0.90;;;20.10;62.10;;;;;;4974103;28;21022;-72
2023/04/29 10:56:48;;;;;;;1.83;1.20;;;19.90;63.00;;;;;;4974455;28;20438;-74
2023/04/29 10:59:15;;;;;;;1.60;0.90;;;19.80;64.80;;;;;;4974375;28;20470;-74
2023/04/29 11:01:46;;;;;;;1.70;1.00;;;19.80;65.20;;;;;;4974436;28;20501;-73
2023/04/29 11:04:13;;;;;;;1.60;0.80;;;19.90;64.30;;;;;;4974309;28;20470;-74
2023/04/29 11:06:42;;;;;;;2.57;0.93;;;20.00;62.80;;;;;;4974187;28;20454;-74
2023/04/29 11:09:11;;;;;;;2.60;1.70;;;19.80;63.10;;;;;;4973902;28;20948;-74
2023/04/29 11:11:46;;;;;;;5.80;5.20;;;19.70;64.40;;;;;;4974314;28;20474;-73
2023/04/29 11:14:13;;;;;;;2.17;1.27;;;19.90;64.60;;;;;;4974118;28;20477;-75
2023/04/29 11:16:50;;;;;;;1.60;0.93;;;20.00;64.10;;;;;;4974345;28;20430;-75
2023/04/29 11:19:17;;;;;;;1.70;1.10;;;19.90;63.90;;;;;;4974287;28;20473;-75
2023/04/29 11:21:46;;;;;;;1.60;0.93;;;19.90;63.30;;;;;;4973835;28;20457;-75
2023/04/29 11:24:14;;;;;;;1.73;0.97;;;19.80;64.20;;;;;;4973757;28;20556;-75
2023/04/29 11:26:42;;;;;;;1.83;1.10;;;19.70;64.90;;;;;;4973869;28;20458;-75
2023/04/29 11:29:10;;;;;;;2.17;1.00;;;19.70;64.20;;;;;;4973825;28;20541;-75
2023/04/29 11:31:37;;;;;;;1.97;1.10;;;19.80;62.70;;;;;;4973857;28;20541;-75
2023/04/29 11:34:07;;;;;;;2.70;1.20;;;19.80;63.60;;;;;;4973756;28;20477;-75
2023/04/29 11:36:34;;;;;;;1.63;0.90;;;19.80;63.00;;;;;;4973773;28;20457;-74
2023/04/29 11:39:02;;;;;;;1.57;0.93;;;19.90;62.00;;;;;;4973688;28;20485;-75
2023/04/29 11:41:30;;;;;;;1.90;1.00;;;19.80;61.70;;;;;;4973736;28;20489;-76
2023/04/29 11:43:57;;;;;;;1.70;1.10;;;19.90;61.50;;;;;;4973619;28;20481;-75
2023/04/29 11:46:24;;;;;;;1.97;0.90;;;20.10;61.60;;;;;;4973652;28;20450;-75
2023/04/29 11:48:51;;;;;;;1.70;0.87;;;20.00;61.30;;;;;;4975310;28;20458;-75
2023/04/29 11:51:19;;;;;;;1.73;0.80;;;19.90;59.90;;;;;;4977417;28;20481;-75
2023/04/29 11:53:46;;;;;;;1.60;0.83;;;19.90;61.30;;;;;;4977143;28;20473;-75
2023/04/29 11:56:13;;;;;;;2.37;0.90;;;20.20;61.50;;;;;;4977601;28;20454;-75
2023/04/29 11:58:42;;;;;;;1.50;0.80;;;20.20;59.90;;;;;;4977062;28;20490;-75
2023/04/29 12:01:08;;;;;;;2.57;1.10;;;20.20;59.40;;;;;;4976687;28;20453;-75
2023/04/29 12:03:35;;;;;;;1.70;0.90;;;20.30;59.60;;;;;;4976991;28;20446;-75
2023/04/29 12:06:02;;;;;;;1.83;0.70;;;20.50;58.90;;;;;;4977017;28;20450;-75
2023/04/29 12:08:32;;;;;;;2.33;0.80;;;20.60;59.20;;;;;;4977140;28;20576;-75
2023/04/29 12:11:00;;;;;;;2.17;0.80;;;20.70;58.40;;;;;;4976970;28;20508;-75
2023/04/29 12:13:29;;;;;;;1.87;0.97;;;20.70;58.00;;;;;;4976771;28;20442;-75
2023/04/29 12:15:57;;;;;;;1.60;0.90;;;20.80;57.30;;;;;;4976741;28;20438;-75
2023/04/29 12:18:26;;;;;;;1.80;0.93;;;20.80;56.50;;;;;;4976790;28;21010;-75
2023/04/29 12:20:54;;;;;;;1.50;0.80;;;20.80;56.90;;;;;;4976713;28;20787;-75
2023/04/29 12:23:22;;;;;;;1.80;1.03;;;20.90;57.00;;;;;;4976754;28;20452;-75
2023/04/29 12:25:52;;;;;;;1.77;1.20;;;21.00;57.10;;;;;;4976495;28;20473;-75
2023/04/29 12:28:19;;;;;;;2.00;1.33;;;20.90;59.00;;;;;;4976594;28;20449;-75
2023/04/29 12:30:46;;;;;;;2.00;1.40;;;20.90;61.00;;;;;;4976412;28;20547;-75
2023/04/29 12:33:18;;;;;;;1.90;1.47;;;20.50;62.50;;;;;;4976315;28;20533;-74
2023/04/29 12:35:44;;;;;;;2.30;1.60;;;20.50;62.40;;;;;;4976428;28;20470;-74
2023/04/29 12:38:13;;;;;;;2.10;1.50;;;20.40;62.50;;;;;;4976340;28;20596;-74
2023/04/29 12:40:40;;;;;;;2.33;1.60;;;20.40;63.20;;;;;;4976206;28;20485;-74
2023/04/29 12:43:12;;;;;;;2.60;1.60;;;20.20;62.90;;;;;;4976326;28;20521;-74
2023/04/29 12:45:39;;;;;;;2.77;1.73;;;20.00;63.70;;;;;;4976248;28;20470;-74
2023/04/29 12:48:06;;;;;;;3.17;1.93;;;19.90;63.80;;;;;;4976536;28;20479;-74
2023/04/29 12:50:34;;;;;;;2.50;1.83;;;19.80;65.00;;;;;;4976352;28;20453;-74
2023/04/29 12:53:02;;;;;;;2.40;1.70;;;19.80;65.10;;;;;;4976061;28;20450;-73
2023/04/29 12:55:29;;;;;;;2.30;1.80;;;19.90;64.20;;;;;;4975794;28;20854;-74
2023/04/29 12:57:55;;;;;;;2.50;1.40;;;20.10;65.00;;;;;;4976095;28;20505;-74
2023/04/29 13:00:24;;;;;;;1.93;1.40;;;20.40;64.90;;;;;;4975025;28;20536;-74
2023/04/29 13:02:51;;;;;;;1.80;1.40;;;20.80;63.00;;;;;;4975830;28;20453;-74
2023/04/29 13:05:18;;;;;;;2.00;1.60;;;21.00;62.80;;;;;;4975520;28;21049;-75
2023/04/29 13:07:44;;;;;;;2.80;1.80;;;21.20;62.40;;;;;;4976150;28;20501;-74
2023/04/29 13:10:12;;;;;;;2.40;1.53;;;21.30;61.90;;;;;;4975687;28;21018;-74
2023/04/29 13:12:39;;;;;;;2.30;1.90;;;21.20;61.20;;;;;;4975811;28;20446;-73
2023/04/29 13:15:08;;;;;;;2.33;1.73;;;21.00;61.40;;;;;;4975466;28;20536;-74
2023/04/29 13:17:36;;;;;;;2.53;2.10;;;21.10;62.00;;;;;;4975702;28;20454;-74
2023/04/29 13:20:03;;;;;;;3.07;1.97;;;21.20;60.80;;;;;;4975524;28;20569;-74
2023/04/29 13:22:30;;;;;;;2.50;1.70;;;21.00;60.60;;;;;;4975181;28;20839;-74
2023/04/29 13:24:57;;;;;;;2.67;2.10;;;20.70;61.20;;;;;;4975448;28;20540;-74
2023/04/29 13:27:24;;;;;;;2.50;2.20;;;20.70;61.60;;;;;;4975152;28;20442;-74
2023/04/29 13:29:50;;;;;;;2.40;2.00;;;20.60;61.40;;;;;;4975411;28;20450;-74
2023/04/29 13:32:17;;;;;;;2.23;1.93;;;20.60;62.30;;;;;;4975615;28;20446;-74
2023/04/29 13:34:45;;;;;;;2.80;2.13;;;20.50;62.20;;;;;;4975280;28;20479;-74
2023/04/29 13:37:12;;;;;;;2.10;1.67;;;20.50;62.80;;;;;;4975231;28;20512;-74
2023/04/29 13:39:38;;;;;;;2.40;2.00;;;20.50;62.90;;;;;;4975178;28;20847;-74
2023/04/29 13:42:05;;;;;;;2.47;1.67;;;20.40;62.80;;;;;;4975885;28;20451;-74
2023/04/29 13:44:32;;;;;;;4.00;2.10;;;20.60;62.30;;;;;;4975039;28;20478;-75
2023/04/29 13:46:59;;;;;;;2.67;2.13;;;20.60;62.00;;;;;;4975072;28;21014;-74
2023/04/29 13:49:26;;;;;;;2.10;1.57;;;20.50;62.40;;;;;;4974713;28;20951;-75
2023/04/29 13:51:55;;;;;;;2.20;1.70;;;20.60;62.50;;;;;;4974998;28;20537;-75
2023/04/29 13:54:21;;;;;;;2.97;2.67;;;20.60;62.10;;;;;;4974882;28;20478;-75
2023/04/29 13:56:49;;;;;;;2.43;2.20;;;20.80;61.70;;;;;;4975019;28;20446;-75
2023/04/29 13:59:15;;;;;;;2.73;2.43;;;20.70;61.70;;;;;;4974424;28;20943;-75
2023/04/29 14:01:43;;;;;;;2.40;2.10;;;20.60;61.50;;;;;;4974889;28;20454;-75
2023/04/29 14:04:10;;;;;;;3.23;2.60;;;20.40;62.10;;;;;;4974721;28;20476;-75
2023/04/29 14:06:36;;;;;;;2.77;2.50;;;20.30;62.20;;;;;;4974682;28;20446;-76
2023/04/29 14:09:04;;;;;;;2.63;2.10;;;20.20;63.20;;;;;;4974269;28;20998;-75
2023/04/29 14:11:35;;;;;;;2.80;2.30;;;20.10;63.60;;;;;;4974277;28;20477;-75
2023/04/29 14:14:01;;;;;;;2.80;2.43;;;20.40;63.30;;;;;;4974329;28;20522;-75
2023/04/29 14:16:28;;;;;;;2.70;2.50;;;20.70;62.80;;;;;;4974816;28;20450;-76
2023/04/29 14:18:55;;;;;;;2.40;2.00;;;20.80;61.80;;;;;;4974592;28;20454;-75
2023/04/29 14:21:23;;;;;;;2.93;2.53;;;21.10;63.80;;;;;;4974423;28;20854;-77
2023/04/29 14:23:49;;;;;;;3.13;2.47;;;21.40;60.00;;;;;;4985461;28;20477;-78
2023/04/29 14:26:18;;;;;;;2.97;2.10;;;21.30;60.10;;;;;;4987104;28;20532;-78
2023/04/29 14:28:44;;;;;;;2.60;2.30;;;21.40;60.70;;;;;;4987383;28;20454;-78
2023/04/29 14:31:12;;;;;;;2.23;1.87;;;21.60;60.10;;;;;;4986999;28;20447;-78
2023/04/29 14:33:39;;;;;;;2.43;1.97;;;21.60;59.80;;;;;;4987803;28;20454;-77
2023/04/29 14:36:07;;;;;;;2.70;2.10;;;21.70;60.00;;;;;;4987180;28;20450;-78
2023/04/29 14:38:33;;;;;;;2.63;2.23;;;21.80;59.10;;;;;;4987950;28;20482;-78
2023/04/29 14:41:00;;;;;;;2.70;2.50;;;22.00;58.70;;;;;;4986836;28;20916;-78
2023/04/29 14:43:28;;;;;;;2.37;2.03;;;21.80;58.40;;;;;;4986810;28;20462;-78
2023/04/29 14:45:55;;;;;;;2.53;2.13;;;21.70;59.20;;;;;;4987228;28;20473;-78
2023/04/29 14:48:22;;;;;;;3.27;2.50;;;21.50;59.90;;;;;;4986621;28;20477;-78
2023/04/29 14:50:49;;;;;;;3.07;2.23;;;21.20;59.40;;;;;;4984418;28;20451;-78
2023/04/29 14:53:16;;;;;;;2.57;2.10;;;21.20;60.40;;;;;;4983890;28;20457;-78
2023/04/29 14:55:42;;;;;;;3.20;2.90;;;21.20;60.20;;;;;;4975563;28;20529;-78
2023/04/29 14:58:09;;;;;;;3.80;2.67;;;21.10;60.40;;;;;;4975077;28;20450;-77
2023/04/29 15:00:37;;;;;;;2.87;2.57;;;21.10;61.20;;;;;;4975407;28;20509;-77
2023/04/29 15:03:05;;;;;;;9.03;8.33;;;21.40;60.70;;;;;;4975992;28;20446;-77
2023/04/29 15:05:31;;;;;;;6.87;6.27;;;21.50;60.30;;;;;;4975378;28;20565;-78
2023/04/29 15:08:00;;;;;;;3.43;3.13;;;21.50;59.70;;;;;;4978025;28;20442;-78
2023/04/29 15:10:27;;;;;;;3.10;2.80;;;21.90;58.80;;;;;;4977155;28;20465;-77
2023/04/29 15:12:53;;;;;;;2.90;2.40;;;22.20;58.20;;;;;;4975905;28;20986;-78
2023/04/29 15:15:20;;;;;;;3.17;2.80;;;22.60;56.70;;;;;;4976239;28;20529;-77
2023/04/29 15:17:48;;;;;;;2.70;2.20;;;23.40;56.40;;;;;;4975657;28;20450;-77
2023/04/29 15:20:15;;;;;;;3.23;2.93;;;24.10;53.40;;;;;;4976010;28;20572;-78
2023/04/29 15:22:42;;;;;;;2.83;2.50;;;24.00;53.40;;;;;;4976140;28;20453;-78
2023/04/29 15:25:09;;;;;;;3.60;3.30;;;23.50;53.90;;;;;;4978679;28;20470;-77
2023/04/29 15:27:36;;;;;;;3.63;2.97;;;22.80;55.40;;;;;;4978866;28;20438;-76
2023/04/29 15:30:04;;;;;;;3.60;2.97;;;22.30;56.60;;;;;;4977723;28;21024;-77
2023/04/29 15:32:31;;;;;;;3.67;3.37;;;21.70;58.00;;;;;;4977980;28;20893;-78
2023/04/29 15:35:00;;;;;;;4.27;3.03;;;21.40;58.40;;;;;;4980379;28;20561;-76
2023/04/29 15:37:27;;;;;;;4.03;3.63;;;21.10;58.40;;;;;;4978428;28;20457;-76
2023/04/29 15:39:53;;;;;;;5.00;4.60;;;20.70;59.80;;;;;;4978748;28;20520;-76
2023/04/29 15:42:20;;;;;;;4.43;4.03;;;20.40;60.60;;;;;;4978834;28;20481;-76
2023/04/29 15:44:47;;;;;;;3.77;3.47;;;20.00;61.30;;;;;;4977292;28;20474;-75
2023/04/29 15:47:13;;;;;;;3.63;3.20;;;19.80;61.30;;;;;;4977025;28;20943;-77
2023/04/29 15:49:41;;;;;;;4.60;4.20;;;19.60;62.00;;;;;;4977275;28;20547;-77
2023/04/29 15:52:10;;;;;;;3.70;3.40;;;19.40;63.20;;;;;;4976909;28;20450;-75
2023/04/29 15:54:36;;;;;;;4.40;4.00;;;19.10;63.50;;;;;;4977052;28;20529;-75
2023/04/29 15:57:03;;;;;;;3.60;3.30;;;18.80;64.40;;;;;;4977055;28;20520;-76
2023/04/29 15:59:30;;;;;;;3.40;3.10;;;18.50;64.10;;;;;;4977015;28;20449;-76
2023/04/29 16:01:57;;;;;;;3.40;3.10;;;18.30;65.60;;;;;;4976917;28;20482;-76
2023/04/29 16:04:24;;;;;;;3.43;3.13;;;18.30;65.50;;;;;;4976587;28;20465;-76
2023/04/29 16:06:52;;;;;;;3.43;3.13;;;18.30;65.40;;;;;;4976913;28;20450;-75
2023/04/29 16:09:21;;;;;;;3.50;3.13;;;18.10;65.90;;;;;;4976526;28;20880;-76
2023/04/29 16:11:47;;;;;;;2.70;2.23;;;17.90;66.10;;;;;;4977496;28;20533;-76
2023/04/29 16:14:14;;;;;;;2.73;2.53;;;17.80;66.40;;;;;;5000228;23;20509;-77
2023/04/29 16:16:41;;;;;;;2.67;2.43;;;17.90;66.70;;;;;;4977610;28;20438;-77
2023/04/29 16:19:08;;;;;;;2.90;2.60;;;18.00;67.10;;;;;;4977619;28;20454;-77
2023/04/29 16:21:34;;;;;;;4.30;2.87;;;17.90;67.50;;;;;;4977821;28;20486;-78
2023/04/29 16:24:01;;;;;;;3.50;3.20;;;18.00;67.40;;;;;;4977708;28;20501;-77
2023/04/29 16:26:29;;;;;;;4.90;3.37;;;18.10;66.70;;;;;;4977586;28;20542;-77
2023/04/29 16:28:56;;;;;;;3.53;2.87;;;18.00;66.60;;;;;;4977881;28;20454;-77
2023/04/29 16:31:23;;;;;;;3.13;2.83;;;17.90;67.20;;;;;;4977754;28;20477;-78
2023/04/29 16:33:55;;;;;;;4.70;3.50;;;17.90;67.50;;;;;;4977359;28;20489;-77
2023/04/29 16:36:22;;;;;;;3.00;2.70;;;17.70;67.90;;;;;;4977626;28;20470;-78
2023/04/29 16:38:50;;;;;;;2.90;2.60;;;17.50;68.40;;;;;;4977367;28;20458;-77
2023/04/29 16:41:16;;;;;;;2.63;2.40;;;17.40;68.80;;;;;;4977278;28;20897;-77
2023/04/29 16:43:45;;;;;;;3.40;3.10;;;17.40;68.80;;;;;;4977471;28;20450;-77
2023/04/29 16:46:11;;;;;;;3.30;3.00;;;17.30;68.70;;;;;;4977320;28;20474;-77
2023/04/29 16:48:38;;;;;;;2.90;2.60;;;17.40;68.90;;;;;;4977152;28;20501;-77
2023/04/29 16:51:05;;;;;;;3.60;2.90;;;17.20;69.00;;;;;;4977326;28;20451;-77